createdAt,value
2022-10-17T03:46:19.295Z,11.40
2022-10-17T03:49:22.918Z,12.63
2022-10-17T03:52:26.216Z,11.60
2022-10-17T03:55:29.599Z,11.15
2022-10-17T03:58:31.896Z,11.00
2022-10-17T04:01:36.300Z,10.18
2022-10-17T04:04:38.968Z,11.77
2022-10-17T04:07:41.478Z,10.52
2022-10-17T04:10:45.033Z,10.35
2022-10-17T04:13:47.865Z,9.90
2022-10-17T04:16:50.518Z,11.88
2022-10-17T04:19:53.586Z,9.63
2022-10-17T04:22:58.056Z,10.32
2022-10-17T04:26:01.833Z,10.52
2022-10-17T04:29:05.021Z,9.25
2022-10-17T04:32:07.431Z,9.77
2022-10-17T04:35:10.245Z,11.55
2022-10-17T04:38:13.364Z,12.10
2022-10-17T04:41:18.350Z,9.23
2022-10-17T04:44:20.821Z,8.98
2022-10-17T04:47:24.130Z,10.93
2022-10-17T04:50:26.640Z,10.50
2022-10-17T04:53:39.539Z,10.07
2022-10-17T04:56:42.019Z,10.98
2022-10-17T04:59:44.921Z,10.30
2022-10-17T05:02:47.836Z,11.70
2022-10-17T05:05:50.492Z,12.17
2022-10-17T05:08:53.111Z,11.40
2022-10-17T05:11:56.004Z,11.32
2022-10-17T05:14:58.296Z,12.13
2022-10-17T05:18:02.600Z,11.07
2022-10-17T05:21:05.723Z,12.07
2022-10-17T05:24:10.910Z,10.02
2022-10-17T05:27:13.540Z,10.68
2022-10-17T05:30:16.895Z,11.10
2022-10-17T05:33:19.589Z,12.32
2022-10-17T05:36:22.597Z,15.97
2022-10-17T05:39:25.238Z,15.27
2022-10-17T05:42:28.634Z,14.85
2022-10-17T05:45:33.186Z,12.18
2022-10-17T05:48:37.199Z,15.10
2022-10-17T05:51:41.064Z,13.00
2022-10-17T05:57:46.589Z,11.63
2022-10-17T06:00:49.598Z,11.68
2022-10-17T06:03:52.383Z,11.10
2022-10-17T06:09:59.059Z,11.03
2022-10-17T06:13:01.445Z,12.50
2022-10-17T06:16:04.965Z,11.75
2022-10-17T06:19:07.275Z,10.85
2022-10-17T06:22:10.871Z,11.30
2022-10-17T06:25:13.298Z,12.35
2022-10-17T06:28:16.610Z,11.65
2022-10-17T06:31:18.994Z,10.40
2022-10-17T06:34:22.082Z,13.73
2022-10-17T06:37:24.953Z,12.07
2022-10-17T06:40:28.417Z,11.55
2022-10-17T06:43:30.901Z,12.20
2022-10-17T06:46:33.703Z,12.02
2022-10-17T06:49:36.085Z,12.15
2022-10-17T06:52:39.537Z,11.77
2022-10-17T06:55:44.056Z,12.73
2022-10-17T06:58:49.927Z,13.07
2022-10-17T07:01:53.819Z,13.23
2022-10-17T07:04:58.849Z,12.30
2022-10-17T07:08:01.175Z,13.25
2022-10-17T07:11:16.749Z,12.43
2022-10-17T07:14:19.202Z,13.30
2022-10-17T07:17:21.895Z,12.97
2022-10-17T07:20:25.013Z,12.60
2022-10-17T07:23:27.721Z,13.60
2022-10-17T07:26:30.171Z,12.87
2022-10-17T07:29:33.078Z,13.82
2022-10-17T07:32:35.496Z,13.88
2022-10-17T07:35:41.150Z,13.77
2022-10-17T07:38:43.889Z,13.88
2022-10-17T07:41:50.418Z,15.25
2022-10-17T07:44:53.376Z,12.27
2022-10-17T07:47:59.070Z,12.27
2022-10-17T07:51:03.593Z,11.25
2022-10-17T07:54:06.589Z,11.20
2022-10-17T07:57:09.614Z,11.68
2022-10-17T08:00:14.281Z,14.05
2022-10-17T08:03:16.974Z,13.60
2022-10-17T08:06:19.430Z,11.90
2022-10-17T08:09:22.400Z,12.10
2022-10-17T08:12:25.992Z,12.25
2022-10-17T08:15:31.724Z,13.30
2022-10-17T08:18:35.722Z,12.80
2022-10-17T08:21:38.735Z,12.93
2022-10-17T08:24:42.754Z,11.63
2022-10-17T08:27:45.527Z,12.48
2022-10-17T08:30:48.082Z,13.60
2022-10-17T08:33:51.025Z,13.93
2022-10-17T08:36:53.418Z,12.40
2022-10-17T08:39:56.122Z,11.93
2022-10-17T08:43:12.196Z,14.10
2022-10-17T08:49:38.279Z,12.70
2022-10-17T08:53:11.246Z,13.52
2022-10-17T08:56:43.926Z,12.82
2022-10-17T08:59:54.211Z,13.77
2022-10-17T09:03:22.608Z,14.25
2022-10-17T09:06:33.616Z,13.75
2022-10-17T09:10:09.481Z,13.35
2022-10-17T09:16:47.754Z,12.32
2022-10-17T09:20:12.254Z,12.18
2022-10-17T09:23:27.878Z,12.68
2022-10-17T09:26:30.685Z,14.23
2022-10-17T09:29:37.905Z,10.30
2022-10-17T09:32:43.065Z,9.05
2022-10-17T09:35:46.805Z,8.15
2022-10-17T09:38:55.207Z,9.70
2022-10-17T09:42:00.546Z,8.60
2022-10-17T09:45:13.953Z,7.22
2022-10-17T09:48:17.071Z,8.43
2022-10-17T09:51:25.846Z,7.78
2022-10-17T09:54:52.719Z,7.35
2022-10-17T09:58:04.490Z,7.40
2022-10-17T10:01:24.397Z,6.97
2022-10-17T10:04:30.565Z,7.85
2022-10-17T10:07:39.841Z,8.68
2022-10-17T10:13:48.334Z,6.85
2022-10-17T10:16:53.727Z,6.35
2022-10-17T10:19:56.436Z,6.65
2022-10-17T10:23:13.533Z,6.45
2022-10-17T10:26:26.154Z,6.47
2022-10-17T10:29:31.140Z,6.35
2022-10-17T10:32:36.680Z,6.05
2022-10-17T10:35:39.528Z,5.65
2022-10-17T10:38:42.513Z,6.55
2022-10-17T10:41:48.740Z,5.22
2022-10-17T10:44:52.792Z,5.90
2022-10-17T10:47:58.871Z,4.82
2022-10-17T10:51:16.318Z,5.25
2022-10-17T10:54:26.528Z,5.82
2022-10-17T10:57:33.327Z,4.75
2022-10-17T11:00:39.138Z,5.43
2022-10-17T11:03:50.974Z,7.90
2022-10-17T11:07:04.890Z,5.10
2022-10-17T11:10:49.630Z,4.80
2022-10-17T11:14:03.460Z,5.12
2022-10-17T11:17:12.103Z,5.07
2022-10-17T11:20:27.154Z,4.97
2022-10-17T11:23:41.486Z,5.47
2022-10-17T11:26:55.414Z,4.47
2022-10-17T11:29:58.549Z,4.82
2022-10-17T11:33:03.460Z,7.62
2022-10-17T11:36:07.976Z,4.68
2022-10-17T11:39:18.468Z,5.32
2022-10-17T11:42:35.665Z,5.30
2022-10-17T11:45:46.233Z,4.97
2022-10-17T11:49:08.841Z,4.43
2022-10-17T11:52:31.574Z,5.03
2022-10-17T11:55:41.892Z,4.57
2022-10-17T11:59:02.029Z,4.97
2022-10-17T12:02:11.732Z,4.15
2022-10-17T12:05:49.270Z,4.55
2022-10-17T12:09:07.471Z,4.57
2022-10-17T12:12:10.099Z,4.53
2022-10-17T12:15:24.598Z,4.53
2022-10-17T12:18:27.611Z,5.25
2022-10-17T12:22:00.256Z,4.40
2022-10-17T12:25:04.272Z,4.47
2022-10-17T12:28:06.415Z,4.45
2022-10-17T12:31:23.120Z,4.70
2022-10-17T12:34:25.527Z,3.85
2022-10-17T12:37:43.440Z,4.07
2022-10-17T12:40:49.100Z,4.57
2022-10-17T12:43:53.474Z,5.18
2022-10-17T12:47:05.164Z,4.18
2022-10-17T12:50:47.950Z,4.23
2022-10-17T12:53:58.533Z,4.62
2022-10-17T12:57:01.129Z,4.05
2022-10-17T13:00:27.536Z,4.60
2022-10-17T13:03:42.372Z,4.20
2022-10-17T13:06:53.313Z,3.80
2022-10-17T13:09:56.307Z,3.95
2022-10-17T13:13:06.597Z,4.32
2022-10-17T13:16:09.679Z,3.90
2022-10-17T13:19:19.781Z,4.47
2022-10-17T13:22:28.670Z,4.57
2022-10-17T13:25:31.390Z,4.05
2022-10-17T13:28:39.066Z,3.62
2022-10-17T13:31:44.444Z,5.15
2022-10-17T13:34:47.098Z,3.35
2022-10-17T13:37:53.948Z,3.85
2022-10-17T13:41:05.833Z,3.60
2022-10-17T13:44:20.994Z,4.10
2022-10-17T13:47:27.664Z,4.65
2022-10-17T13:50:44.816Z,5.72
2022-10-17T13:53:47.822Z,4.97
2022-10-17T13:56:57.061Z,4.25
2022-10-17T14:00:10.100Z,4.82
2022-10-17T14:03:15.100Z,4.07
2022-10-17T14:06:23.567Z,4.12
2022-10-17T14:09:29.536Z,4.87
2022-10-17T14:12:33.841Z,4.53
2022-10-17T14:15:37.235Z,4.50
2022-10-17T14:18:40.671Z,5.25
2022-10-17T14:24:53.226Z,4.35
2022-10-17T14:28:03.476Z,3.92
2022-10-17T14:31:11.204Z,5.25
2022-10-17T14:34:27.703Z,4.72
2022-10-17T14:37:44.892Z,4.12
2022-10-17T14:40:52.779Z,4.40
2022-10-17T14:44:02.316Z,4.57
2022-10-17T14:47:38.077Z,4.45
2022-10-17T14:50:32.900Z,4.78
2022-10-17T14:53:36.196Z,4.80
2022-10-17T14:56:43.307Z,4.18
2022-10-17T14:59:54.566Z,4.50
2022-10-17T15:02:57.928Z,5.55
2022-10-17T15:06:17.356Z,4.78
2022-10-17T15:09:19.998Z,5.05
2022-10-17T15:12:25.057Z,5.12
2022-10-17T15:15:31.805Z,6.55
2022-10-17T15:18:34.060Z,5.55
2022-10-17T15:21:40.771Z,5.12
2022-10-17T15:24:47.424Z,5.03
2022-10-17T15:30:52.550Z,5.50
2022-10-17T15:33:55.405Z,5.90
2022-10-17T15:36:58.713Z,5.60
2022-10-17T15:40:01.634Z,5.37
2022-10-17T15:43:04.040Z,4.93
2022-10-17T15:46:13.297Z,5.65
2022-10-17T15:49:18.585Z,5.78
2022-10-17T15:52:22.474Z,5.47
2022-10-17T15:55:24.973Z,5.70
2022-10-17T15:58:35.125Z,6.12
